• Join FlightAware (Why Join?)
  • Login
  • US Flag 
12:10AM EDT


 

Airport Tracker/Info


-or-


 

Live Flight TrackerFlight Track Log ✈ N589H ✈ 20-Jan-2014 ✈ KPIE - KLZU

Flight Track Log - Related Links

Times and Time Zones

All times are in EST time to prevent confusion due to time zone crossing. See the N589H flight status page for this flight to view local times or setup timezone preferences in your user account.

Time Position Orientation Groundspeed Altitude Reporting Facility
EST Latitude Longitude Course Direction KTS MPH feet Rate Location/Type
01:33PM 27.9333 -82.6833 330° Northwest 142 163 500  Level Tampa TRACON
01:34PM 27.9833 -82.7167 330° Northwest 199 229 2,300 1,680 Climbing Tampa TRACON
01:35PM 28.0500 -82.7333 348° North 211 243 4,300 1,680 Climbing Tampa TRACON
01:37PM 28.1497 -82.7514 351° North 223 257 7,200 1,620 Climbing Jacksonville Center
01:38PM 28.2186 -82.7653 350° North 228 262 9,000 1,740 Climbing Jacksonville Center
01:39PM 28.2875 -82.7700 357° North 239 275 10,700 900 Climbing Jacksonville Center
01:40PM 28.3628 -82.7722 359° North 245 282 10,900 480 Climbing Jacksonville Center
01:41PM 28.4442 -82.7792 356° North 275 316 11,700 1,080 Climbing Jacksonville Center
01:42PM 28.5233 -82.7839 357° North 281 323 13,100 1,380 Climbing Jacksonville Center
01:43PM 28.5986 -82.7886 357° North 281 323 14,600 1,500 Climbing Jacksonville Center
01:44PM 28.6717 -82.7933 357° North 271 312 16,100 1,440 Climbing Jacksonville Center
01:45PM 28.7447 -82.7931 360° North 266 306 17,500 1,320 Climbing Jacksonville Center
01:46PM 28.8197 -82.7953 359° North 266 306 18,800 1,440 Climbing Jacksonville Center
01:47PM 28.8950 -82.8025 355° North 266 306 20,400 1,440 Climbing Jacksonville Center
01:48PM 28.9681 -82.8189 349° North 272 313 21,700 1,380 Climbing Jacksonville Center
01:49PM 29.0472 -82.8381 348° North 278 320 23,200 1,320 Climbing Jacksonville Center
01:50PM 29.1244 -82.8544 349° North 278 320 24,400 1,260 Climbing Jacksonville Center
01:51PM 29.2081 -82.8736 349° North 283 326 25,800 780 Climbing Jacksonville Center
01:52PM 29.2917 -82.8903 350° North 294 338 26,000 60 Climbing Jacksonville Center
01:53PM 29.3856 -82.9117 349° North 319 367 26,000  Level Jacksonville Center
01:54PM 29.4942 -82.9356 349° North 350 403 26,000  Level Jacksonville Center
01:55PM 29.5942 -82.9569 349° North 371 427 26,000  Level Jacksonville Center
01:56PM 29.6922 -82.9786 349° North 371 427 26,000  Level Jacksonville Center
01:57PM 29.7925 -83.0003 349° North 371 427 26,000  Level Jacksonville Center
01:58PM 29.8906 -83.0219 349° North 366 421 26,000  Level Jacksonville Center
01:59PM 29.9908 -83.0436 349° North 366 421 26,000  Level Jacksonville Center
02:00PM 30.0931 -83.0656 349° North 366 421 26,000  Level Jacksonville Center
02:01PM 30.1933 -83.0872 349° North 366 421 26,000  Level Jacksonville Center
02:02PM 30.2936 -83.1092 349° North 366 421 26,000  Level Jacksonville Center
02:03PM 30.3936 -83.1333 348° North 366 421 26,000  Level Jacksonville Center
02:04PM 30.4939 -83.1528 351° North 366 421 26,000  Level Jacksonville Center
02:05PM 30.5939 -83.1772 348° North 366 421 26,000  Level Jacksonville Center
02:06PM 30.6964 -83.1969 351° North 366 421 26,000  Level Jacksonville Center
02:07PM 30.7986 -83.2214 348° North 366 421 26,000  Level Jacksonville Center
02:08PM 30.8883 -83.2411 349° North 366 421 26,000  Level Jacksonville Center
02:09PM 30.9883 -83.2658 348° North 366 421 26,000  Level Jacksonville Center
02:10PM 31.0886 -83.2881 349° North 366 421 26,000  Level Jacksonville Center
02:11PM 31.1867 -83.3103 349° North 366 421 26,000  Level Jacksonville Center
02:12PM 31.2867 -83.3325 349° North 366 421 26,000  Level Jacksonville Center
02:13PM 31.3847 -83.3550 349° North 361 415 26,000  Level Jacksonville Center
02:14PM 31.4828 -83.3775 349° North 355 409 26,000  Level Jacksonville Center
02:15PM 31.5850 -83.3997 350° North 355 409 26,000  Level Jacksonville Center
02:16PM 31.6831 -83.4247 348° North 355 409 26,000 -360 Level Jacksonville Center
02:18PM 31.8539 -83.4667 348° North 380 437 25,100 -720 Descending Atlanta Center
02:19PM 31.9583 -83.4881 350° North 380 437 24,200 -960 Descending Atlanta Center
02:20PM 32.0564 -83.5119 348° North 369 425 23,200 -960 Descending Atlanta Center
02:21PM 32.1547 -83.5358 348° North 363 418 22,300 -600 Descending Atlanta Center
02:22PM 32.2528 -83.5575 349° North 358 412 22,000 -180 Descending Atlanta Center
02:23PM 32.3489 -83.5792 349° North 351 404 22,000 -240 Level Atlanta Center
02:24PM 32.4450 -83.6033 348° North 351 404 21,600 -840 Descending Atlanta Center
02:25PM 32.5392 -83.6250 349° North 351 404 20,400 -1,560 Descending Atlanta Center
02:26PM 32.6308 -83.6442 350° North 345 397 18,500 -2,040 Descending Atlanta Center
02:27PM 32.7186 -83.6661 348° North 332 382 16,400 -2,400 Descending Atlanta Center
02:28PM 32.8044 -83.6856 349° North 319 367 13,800 -2,400 Descending Atlanta Center
02:29PM 32.8836 -83.7050 348° North 305 351 11,600 -1,860 Descending Atlanta Center
02:30PM 32.9653 -83.7269 347° North 294 338 10,100 -1,560 Descending Atlanta Center
02:31PM 33.0592 -83.7439 351° North 304 350 8,500 -1,080 Descending Atlanta Center
02:32PM 33.1428 -83.7658 348° North 304 350 8,000 -300 Descending Atlanta Center
02:33PM 33.2117 -83.7458 14° North 299 344 8,000  Level Atlanta Center
02:34PM 33.3333 -83.6667 29° Northeast 299 344 8,000 -300 Level Atlanta TRACON
02:35PM 33.4167 -83.6833 351° North 296 341 7,300 -900 Descending Atlanta TRACON
02:36PM 33.5000 -83.6833 360° North 275 316 6,200 -1,260 Descending Atlanta TRACON
02:37PM 33.5667 -83.7000 348° North 266 306 5,000 -1,200 Descending Atlanta TRACON
02:38PM 33.6333 -83.7000 360° North 259 298 4,000 -540 Descending Atlanta TRACON
02:39PM 33.7000 -83.7167 348° North 232 267 4,000  Level Atlanta TRACON
02:40PM 33.7667 -83.7333 348° North 221 254 4,000  Level Atlanta TRACON
02:41PM 33.8167 -83.7500 345° North 221 254 4,000 -60 Level Atlanta TRACON
02:42PM 33.8833 -83.7667 348° North 209 241 3,900 -240 Descending Atlanta TRACON
02:43PM 33.9500 -83.8000 337° Northwest 200 230 3,500 -600 Descending Atlanta TRACON
02:44PM 33.9833 -83.8333 320° Northwest 186 214 2,800 -660 Descending Atlanta TRACON
02:45PM 34.0000 -83.8667 301° West 147 169 2,300 -480 Descending Atlanta TRACON
02:46PM 34.0000 -83.9167 270° West 144 166 1,900 -420 Descending Atlanta TRACON
02:48PM 33.9667 -83.9500 North  Level FlightAware Approximate
02:55PM 33.9781 -83.9624 North  Level Estimated
02:56PM 33.9781 -83.9624 North  Level Estimated